Time;durP1;ratioP1;P1;durP2;ratioP2;P2;SDS_P1;SDS_P2;PMS_P1;PMS_P2;Temp;Humidity;BMP_temperature;BMP_pressure;BME280_temperature;BME280_humidity;BME280_pressure;Samples;Min_cycle;Max_cycle;Signal;HPM_P1;HPM_P2
2024/03/01 05:02:18;;;;;;;;;;;;;;;;;;;;;
2024/03/01 05:04:50;;;;;;;4.30;3.43;;;1.30;97.30;;;;;;4954626;28;20932;-83
2024/03/01 05:07:49;;;;;;;2.27;2.10;;;1.40;97.30;;;;;;4954224;28;20441;-83
2024/03/01 05:13:52;;;;;;;7.17;3.83;;;1.50;97.30;;;;;;4938869;28;20435;-84
2024/03/01 05:16:50;;;;;;;3.20;3.00;;;1.60;97.30;;;;;;4954313;28;20423;-84
2024/03/01 05:19:39;;;;;;;20.10;3.47;;;1.60;97.30;;;;;;4950797;28;20521;-85
2024/03/01 05:22:12;;;;;;;4.60;3.50;;;1.50;97.30;;;;;;4947733;28;20445;-83
2024/03/01 05:24:50;;;;;;;3.53;3.33;;;1.40;97.30;;;;;;5078866;27;21094;-62
2024/03/01 05:27:16;;;;;;;12.13;6.50;;;1.30;97.30;;;;;;5071098;28;20413;-62
2024/03/01 05:29:42;;;;;;;3.03;2.10;;;1.20;97.30;;;;;;5074529;28;20721;-62
2024/03/01 05:32:08;;;;;;;7.57;3.20;;;1.10;97.30;;;;;;5068134;28;20483;-61
2024/03/01 05:34:34;;;;;;;5.13;2.93;;;1.00;97.30;;;;;;5073102;28;20482;-62
2024/03/01 05:36:59;;;;;;;7.90;3.37;;;1.00;97.30;;;;;;5065080;28;20183;-61
2024/03/01 05:39:25;;;;;;;5.43;4.23;;;1.00;97.30;;;;;;5080478;28;20628;-62
2024/03/01 05:41:50;;;;;;;3.73;3.53;;;1.10;97.30;;;;;;5072077;28;20256;-62
2024/03/01 05:44:17;;;;;;;6.03;3.20;;;1.10;97.30;;;;;;5064267;28;20605;-61
2024/03/01 05:46:43;;;;;;;2.37;2.17;;;1.10;97.30;;;;;;5066882;28;20189;-62
2024/03/01 05:49:09;;;;;;;3.20;3.00;;;1.10;97.30;;;;;;5071834;28;20795;-61
2024/03/01 05:51:35;;;;;;;5.70;3.20;;;1.10;97.30;;;;;;5073738;28;20516;-62
2024/03/01 05:54:01;;;;;;;3.40;3.20;;;1.10;97.30;;;;;;5066467;28;20853;-61
2024/03/01 05:56:26;;;;;;;2.40;1.90;;;1.10;97.30;;;;;;5073878;28;20447;-62
2024/03/01 05:58:52;;;;;;;11.27;4.13;;;1.00;97.30;;;;;;5071677;28;20662;-61
2024/03/01 06:01:19;;;;;;;2.50;2.30;;;1.00;97.30;;;;;;5066225;28;20569;-62
2024/03/01 06:03:45;;;;;;;4.97;1.67;;;1.00;97.30;;;;;;5072311;28;20208;-62
2024/03/01 06:06:14;;;;;;;3.20;3.00;;;1.00;97.30;;;;;;5077305;28;20428;-61
2024/03/01 06:08:40;;;;;;;9.27;4.10;;;1.00;97.30;;;;;;5074240;28;20424;-62
2024/03/01 06:11:07;;;;;;;6.63;3.10;;;1.10;97.30;;;;;;5070509;28;20425;-61
2024/03/01 06:13:33;;;;;;;4.37;3.90;;;1.10;97.30;;;;;;5075036;28;20657;-62
2024/03/01 06:15:58;;;;;;;2.03;1.77;;;1.10;97.30;;;;;;5069709;28;20443;-61
2024/03/01 06:18:24;;;;;;;3.13;2.63;;;1.10;97.30;;;;;;5069387;28;20185;-61
2024/03/01 06:20:49;;;;;;;6.27;2.83;;;1.10;97.30;;;;;;5072980;28;20199;-61
2024/03/01 06:23:15;;;;;;;3.90;3.70;;;1.10;97.30;;;;;;5072213;28;20231;-61
2024/03/01 06:25:40;;;;;;;7.10;2.60;;;1.10;97.30;;;;;;5065727;28;20210;-61
2024/03/01 06:28:06;;;;;;;5.93;2.30;;;1.10;97.30;;;;;;5077590;28;20546;-61
2024/03/01 06:30:31;;;;;;;8.00;3.93;;;1.20;97.30;;;;;;5072035;28;20256;-61
2024/03/01 06:32:58;;;;;;;2.43;2.27;;;1.30;97.30;;;;;;5064781;28;20176;-61
2024/03/01 06:35:23;;;;;;;3.13;2.93;;;1.30;97.30;;;;;;5056302;28;20538;-61
2024/03/01 06:37:49;;;;;;;13.63;3.57;;;1.30;97.30;;;;;;5051391;28;21003;-62
2024/03/01 06:40:14;;;;;;;3.37;3.13;;;1.40;97.30;;;;;;5050846;28;20183;-62
2024/03/01 06:42:40;;;;;;;6.83;2.80;;;1.40;97.30;;;;;;5051960;28;20674;-61
2024/03/01 06:45:08;;;;;;;7.77;3.60;;;1.40;97.30;;;;;;5065193;28;20180;-61
2024/03/01 06:47:34;;;;;;;4.10;2.50;;;1.40;97.30;;;;;;5049447;28;20184;-61
2024/03/01 06:50:00;;;;;;;4.00;3.10;;;1.50;97.30;;;;;;5066404;28;20439;-62
2024/03/01 06:52:25;;;;;;;2.43;2.23;;;1.50;97.30;;;;;;5057614;28;20442;-61
2024/03/01 06:54:52;;;;;;;3.93;2.80;;;1.50;97.30;;;;;;5044726;28;20951;-61
2024/03/01 06:57:17;;;;;;;9.93;2.93;;;1.50;97.30;;;;;;5071792;28;20179;-61
2024/03/01 06:59:43;;;;;;;6.30;4.57;;;1.50;97.30;;;;;;5061464;28;20955;-61
2024/03/01 07:02:09;;;;;;;11.97;3.83;;;1.60;97.30;;;;;;5056169;28;20203;-61
2024/03/01 07:04:35;;;;;;;4.97;4.60;;;1.70;97.30;;;;;;5059828;28;20486;-61
2024/03/01 07:07:01;;;;;;;3.87;3.67;;;1.70;97.30;;;;;;5057168;28;20422;-61
2024/03/01 07:09:26;;;;;;;7.73;3.73;;;1.80;97.30;;;;;;5058342;28;20179;-61
2024/03/01 07:11:52;;;;;;;6.93;6.40;;;1.90;97.30;;;;;;5061864;28;20195;-62
2024/03/01 07:14:17;;;;;;;4.73;3.30;;;2.00;97.30;;;;;;5061852;28;20558;-61
2024/03/01 07:16:43;;;;;;;5.27;4.97;;;2.10;97.30;;;;;;5057901;28;20822;-61
2024/03/01 07:19:09;;;;;;;4.30;3.40;;;2.20;97.30;;;;;;5057252;28;20184;-62
2024/03/01 07:21:36;;;;;;;5.40;5.10;;;2.20;97.30;;;;;;5066977;28;20233;-61
2024/03/01 07:24:02;;;;;;;11.93;5.13;;;2.30;97.30;;;;;;5063445;28;20322;-62
2024/03/01 07:26:28;;;;;;;6.63;3.10;;;2.40;97.30;;;;;;5058235;28;20471;-61
2024/03/01 07:28:53;;;;;;;5.97;4.57;;;2.60;97.30;;;;;;5061765;28;20916;-61
2024/03/01 07:31:19;;;;;;;6.03;4.13;;;2.70;97.30;;;;;;5061106;28;20203;-62
2024/03/01 07:33:44;;;;;;;3.33;3.03;;;2.80;97.30;;;;;;5061371;28;20187;-61
2024/03/01 07:36:12;;;;;;;5.17;4.87;;;3.00;97.30;;;;;;5061954;28;20310;-62
2024/03/01 07:38:38;;;;;;;5.67;3.20;;;3.10;97.30;;;;;;5057775;28;20186;-61
2024/03/01 07:41:04;;;;;;;4.97;4.20;;;3.30;97.30;;;;;;5049715;28;20430;-62
2024/03/01 07:43:30;;;;;;;4.67;3.77;;;3.40;97.30;;;;;;5050016;28;20453;-62
2024/03/01 07:45:56;;;;;;;3.97;3.63;;;3.60;97.30;;;;;;5060685;28;20182;-62
2024/03/01 07:48:21;;;;;;;2.40;2.23;;;3.80;97.30;;;;;;5067792;28;20421;-61
2024/03/01 07:50:47;;;;;;;2.43;2.23;;;4.10;97.30;;;;;;5053622;28;20248;-61
2024/03/01 07:53:13;;;;;;;4.43;3.53;;;4.20;97.30;;;;;;5061354;28;20598;-61
2024/03/01 07:55:39;;;;;;;17.67;5.90;;;4.30;97.30;;;;;;5061538;28;20514;-61
2024/03/01 07:58:05;;;;;;;8.60;4.80;;;4.50;97.30;;;;;;5055880;28;20448;-61
2024/03/01 08:00:30;;;;;;;9.87;5.17;;;4.70;97.30;;;;;;5063126;28;20469;-61
2024/03/01 08:03:07;;;;;;;8.83;3.20;;;4.90;97.30;;;;;;5052530;28;20843;-61
2024/03/01 08:05:38;;;;;;;10.30;4.80;;;5.10;97.30;;;;;;5057916;28;20619;-61
2024/03/01 08:08:04;;;;;;;5.67;5.37;;;5.30;97.30;;;;;;5056793;28;20466;-61
2024/03/01 08:10:34;;;;;;;3.50;3.30;;;5.50;97.30;;;;;;5057342;28;20914;-61
2024/03/01 08:13:03;;;;;;;6.33;2.80;;;5.70;97.30;;;;;;5041400;28;20831;-61
2024/03/01 08:15:35;;;;;;;4.70;2.87;;;5.90;97.30;;;;;;5061649;28;20472;-61
2024/03/01 08:18:13;;;;;;;3.80;1.90;;;6.00;97.30;;;;;;5047982;28;20965;-61
2024/03/01 08:20:58;;;;;;;12.10;3.77;;;6.10;97.30;;;;;;5054570;28;20851;-61
2024/03/01 08:23:28;;;;;;;6.83;3.50;;;6.20;97.30;;;;;;5062982;28;20475;-61
2024/03/01 08:25:55;;;;;;;9.63;7.10;;;6.30;97.30;;;;;;5065631;28;20920;-61
2024/03/01 08:28:30;;;;;;;6.23;5.83;;;6.40;97.30;;;;;;5060482;28;20410;-60
2024/03/01 08:30:56;;;;;;;9.00;3.80;;;6.50;97.30;;;;;;5055983;28;21063;-60
2024/03/01 08:33:22;;;;;;;7.63;5.17;;;6.60;97.30;;;;;;5062876;28;20508;-60
2024/03/01 08:35:48;;;;;;;3.97;3.40;;;6.70;97.30;;;;;;5048974;28;20652;-60
2024/03/01 08:38:56;;;;;;;2.40;2.23;;;6.80;97.30;;;;;;5057257;28;20195;-60
2024/03/01 08:41:21;;;;;;;2.80;2.63;;;6.90;97.30;;;;;;5058526;28;20498;-60
2024/03/01 08:43:47;;;;;;;4.47;3.67;;;7.10;97.30;;;;;;5058175;28;20553;-60
2024/03/01 08:46:33;;;;;;;9.60;5.23;;;7.30;97.30;;;;;;5059228;28;20175;-60
2024/03/01 08:49:06;;;;;;;7.00;5.33;;;7.50;97.30;;;;;;5045103;28;20198;-60
2024/03/01 08:51:31;;;;;;;12.63;7.23;;;7.70;97.30;;;;;;5051009;28;20466;-60
2024/03/01 08:54:02;;;;;;;9.90;4.57;;;7.70;97.30;;;;;;5062732;28;20442;-60
2024/03/01 08:56:32;;;;;;;14.10;4.20;;;7.80;97.30;;;;;;5049487;28;20183;-60
2024/03/01 08:59:00;;;;;;;6.67;4.90;;;7.80;97.30;;;;;;5057082;28;20425;-60
2024/03/01 09:01:47;;;;;;;5.77;4.43;;;7.80;97.30;;;;;;5066092;28;20484;-60
2024/03/01 09:04:15;;;;;;;12.13;5.37;;;7.80;97.30;;;;;;5048700;28;20972;-60
2024/03/01 09:06:41;;;;;;;5.20;4.90;;;7.80;97.30;;;;;;5050581;28;20464;-60
2024/03/01 09:09:13;;;;;;;4.43;4.10;;;7.80;97.30;;;;;;5055204;28;20410;-60
2024/03/01 09:11:38;;;;;;;5.07;3.50;;;7.80;97.30;;;;;;5062219;28;20440;-60
2024/03/01 09:14:09;;;;;;;9.20;4.93;;;7.80;97.30;;;;;;5053310;28;20421;-60
2024/03/01 09:16:35;;;;;;;27.43;5.07;;;7.80;97.30;;;;;;5050553;28;20219;-60
2024/03/01 09:19:01;;;;;;;9.40;4.70;;;7.90;97.30;;;;;;5044421;28;20980;-60
2024/03/01 09:21:38;;;;;;;7.33;5.80;;;7.90;97.30;;;;;;5057695;28;20444;-60
2024/03/01 09:24:04;;;;;;;15.23;8.27;;;7.90;97.30;;;;;;5053483;28;20295;-60
2024/03/01 09:26:30;;;;;;;4.80;4.30;;;8.00;97.30;;;;;;5057864;28;20964;-60
2024/03/01 09:29:04;;;;;;;10.70;5.33;;;8.00;97.30;;;;;;5058915;28;21720;-60
2024/03/01 09:31:31;;;;;;;5.90;3.90;;;8.10;97.30;;;;;;5049358;28;20193;-60
2024/03/01 09:34:01;;;;;;;8.70;6.13;;;8.10;97.30;;;;;;5055914;28;20433;-60
2024/03/01 09:36:26;;;;;;;17.30;4.60;;;8.20;97.30;;;;;;5058609;28;20430;-60
2024/03/01 09:38:54;;;;;;;6.53;3.67;;;8.20;97.30;;;;;;5049324;28;20425;-60
2024/03/01 09:41:23;;;;;;;11.07;6.23;;;8.30;97.30;;;;;;5059059;28;20191;-61
2024/03/01 09:44:13;;;;;;;12.27;6.17;;;8.30;97.30;;;;;;5054923;28;20801;-60
2024/03/01 09:47:05;;;;;;;10.77;3.93;;;8.40;97.30;;;;;;5061352;28;20441;-60
2024/03/01 09:49:58;;;;;;;16.47;5.40;;;8.50;97.30;;;;;;5062760;28;20460;-60
2024/03/01 09:52:39;;;;;;;6.90;3.83;;;8.60;97.30;;;;;;5051783;28;20949;-60
2024/03/01 09:55:32;;;;;;;11.80;5.47;;;8.70;97.30;;;;;;5050026;28;20898;-60
2024/03/01 09:58:35;;;;;;;10.10;5.47;;;8.80;97.30;;;;;;5047444;28;20815;-60
2024/03/01 10:01:21;;;;;;;5.03;4.37;;;8.90;97.30;;;;;;5054102;28;20434;-60
2024/03/01 10:04:28;;;;;;;13.27;6.57;;;8.90;97.30;;;;;;5052943;28;20481;-60
2024/03/01 10:07:28;;;;;;;14.43;6.13;;;9.00;97.30;;;;;;5046555;28;20437;-60
2024/03/01 10:10:34;;;;;;;8.50;5.60;;;9.10;97.30;;;;;;5054271;28;20425;-60
2024/03/01 10:13:33;;;;;;;11.27;4.57;;;9.10;97.30;;;;;;5055944;28;20529;-60
2024/03/01 10:16:29;;;;;;;15.83;5.07;;;9.10;97.30;;;;;;5062369;28;20426;-60
2024/03/01 10:19:02;;;;;;;9.57;4.13;;;9.20;97.30;;;;;;5060374;28;20426;-60
2024/03/01 10:21:35;;;;;;;9.37;5.63;;;9.30;97.30;;;;;;5061558;28;20449;-60
2024/03/01 10:24:20;;;;;;;5.53;3.33;;;9.30;97.30;;;;;;5063693;28;20484;-60
2024/03/01 10:27:02;;;;;;;12.97;4.47;;;9.30;97.30;;;;;;5064838;28;20825;-60
2024/03/01 10:30:09;;;;;;;5.10;3.40;;;9.30;97.30;;;;;;5058132;28;20418;-60
2024/03/01 10:32:58;;;;;;;17.47;5.00;;;9.30;97.30;;;;;;5063491;28;20492;-60
2024/03/01 10:35:27;;;;;;;28.93;5.20;;;9.50;97.30;;;;;;5049264;28;20512;-59
2024/03/01 10:38:22;;;;;;;6.67;3.53;;;9.50;97.30;;;;;;5050325;28;20806;-60
2024/03/01 10:41:12;;;;;;;10.40;6.47;;;9.50;97.30;;;;;;5062445;28;20473;-60
2024/03/01 10:44:10;;;;;;;5.90;3.57;;;9.60;97.30;;;;;;5057006;28;20516;-60
2024/03/01 10:47:13;;;;;;;5.33;3.23;;;9.60;97.30;;;;;;5055597;28;20516;-59
2024/03/01 10:49:53;;;;;;;15.47;6.87;;;9.70;97.30;;;;;;5049062;28;20830;-60
2024/03/01 10:52:23;;;;;;;3.67;2.80;;;9.70;97.30;;;;;;5048738;28;20445;-60
2024/03/01 10:54:51;;;;;;;15.03;4.87;;;9.80;97.30;;;;;;5056601;28;20410;-59
2024/03/01 10:57:19;;;;;;;11.30;7.50;;;9.80;97.30;;;;;;5052034;28;21053;-60
2024/03/01 10:59:53;;;;;;;7.63;3.43;;;9.80;97.30;;;;;;5049764;28;20421;-60
2024/03/01 11:02:26;;;;;;;10.67;6.00;;;9.90;97.30;;;;;;5067835;28;20433;-60
2024/03/01 11:05:32;;;;;;;6.27;5.93;;;9.90;97.30;;;;;;5067166;28;20502;-60
2024/03/01 11:08:00;;;;;;;8.60;5.73;;;9.90;97.30;;;;;;5054845;28;20569;-59
2024/03/01 11:10:39;;;;;;;7.43;4.23;;;9.90;97.30;;;;;;5054836;28;20450;-60
2024/03/01 11:13:07;;;;;;;5.60;4.13;;;9.90;97.30;;;;;;5055764;28;20417;-60
2024/03/01 11:15:34;;;;;;;10.70;5.30;;;9.90;97.30;;;;;;5053739;28;20448;-60
2024/03/01 11:18:06;;;;;;;11.33;5.53;;;9.90;97.30;;;;;;5059663;28;20413;-60
2024/03/01 11:20:49;;;;;;;17.93;4.90;;;9.80;97.30;;;;;;5055636;28;20441;-59
2024/03/01 11:23:18;;;;;;;3.50;3.30;;;9.70;97.30;;;;;;5057162;28;20838;-60
2024/03/01 11:26:07;;;;;;;9.63;5.50;;;9.80;97.30;;;;;;5067392;28;20497;-60
2024/03/01 11:28:33;;;;;;;8.73;5.60;;;9.90;97.30;;;;;;5064823;28;20418;-59
2024/03/01 11:31:05;;;;;;;11.53;5.70;;;10.00;97.30;;;;;;5061427;28;20460;-60
2024/03/01 11:33:36;;;;;;;12.90;5.17;;;10.10;97.30;;;;;;5052543;28;20472;-60
2024/03/01 11:36:40;;;;;;;5.67;4.87;;;10.20;97.30;;;;;;5052346;28;20418;-60
2024/03/01 11:39:37;;;;;;;10.73;5.03;;;10.30;97.30;;;;;;5058573;28;20876;-60
2024/03/01 11:42:17;;;;;;;5.47;4.00;;;10.30;97.30;;;;;;5051390;28;20477;-60
2024/03/01 11:44:51;;;;;;;6.33;4.27;;;10.40;97.30;;;;;;5063387;28;20464;-59
2024/03/01 11:47:46;;;;;;;6.03;5.03;;;10.50;97.30;;;;;;5064231;28;20991;-60
2024/03/01 11:50:18;;;;;;;18.70;7.57;;;10.60;97.30;;;;;;5046780;28;20465;-60
2024/03/01 11:53:01;;;;;;;4.17;3.93;;;10.70;97.30;;;;;;5061844;28;20418;-59
2024/03/01 11:55:45;;;;;;;8.03;3.50;;;10.70;97.30;;;;;;5056883;28;20409;-61
2024/03/01 11:58:27;;;;;;;17.13;6.00;;;10.80;97.30;;;;;;5057460;28;20451;-60
2024/03/01 12:01:17;;;;;;;5.53;4.00;;;10.80;97.30;;;;;;5059010;28;20449;-60
2024/03/01 12:04:06;;;;;;;11.53;4.83;;;10.80;97.30;;;;;;5062161;28;20457;-60
2024/03/01 12:06:59;;;;;;;9.63;6.57;;;10.70;97.30;;;;;;5057890;28;20414;-60
2024/03/01 12:09:53;;;;;;;13.83;6.07;;;10.80;97.30;;;;;;5054559;28;20409;-60
2024/03/01 12:12:36;;;;;;;7.77;4.27;;;10.80;97.30;;;;;;5052849;28;20426;-60
2024/03/01 12:15:08;;;;;;;15.00;5.17;;;10.80;97.30;;;;;;5047507;28;20433;-60
2024/03/01 12:17:43;;;;;;;8.63;4.30;;;10.90;97.30;;;;;;5063770;28;20417;-60
2024/03/01 12:20:14;;;;;;;7.20;4.90;;;10.90;97.30;;;;;;5052347;28;20423;-60
2024/03/01 12:22:55;;;;;;;11.10;5.40;;;11.00;97.30;;;;;;5051108;28;20480;-60
2024/03/01 12:25:24;;;;;;;4.83;3.93;;;11.10;97.30;;;;;;5053751;28;20418;-60
2024/03/01 12:28:16;;;;;;;13.27;7.23;;;11.10;97.30;;;;;;5047828;28;20829;-60
2024/03/01 12:31:24;;;;;;;13.07;5.70;;;11.20;97.30;;;;;;5053749;28;20524;-59
2024/03/01 12:34:07;;;;;;;13.07;8.20;;;11.20;97.30;;;;;;5056239;28;20457;-60
2024/03/01 12:37:10;;;;;;;12.17;5.50;;;11.30;97.30;;;;;;5057058;28;20474;-60
2024/03/01 12:39:38;;;;;;;6.80;4.20;;;11.30;97.30;;;;;;5056971;28;20429;-60
2024/03/01 12:42:31;;;;;;;9.47;5.07;;;11.30;97.30;;;;;;5054250;28;20453;-60
2024/03/01 12:45:38;;;;;;;6.57;4.27;;;11.30;97.30;;;;;;5054302;28;20991;-60
2024/03/01 12:48:28;;;;;;;8.37;4.67;;;11.30;97.30;;;;;;5056900;28;20434;-59
2024/03/01 12:51:12;;;;;;;10.80;5.63;;;11.30;97.30;;;;;;5057196;28;20478;-60
2024/03/01 12:53:55;;;;;;;10.47;5.33;;;11.30;97.30;;;;;;5054368;28;20421;-60
2024/03/01 12:56:43;;;;;;;7.30;4.10;;;11.30;97.30;;;;;;5056580;28;20975;-60
2024/03/01 12:59:36;;;;;;;14.53;6.80;;;11.30;97.30;;;;;;5059349;28;20413;-60
2024/03/01 13:02:36;;;;;;;7.93;2.90;;;11.40;97.30;;;;;;5054771;28;20867;-60
2024/03/01 13:05:12;;;;;;;8.00;3.67;;;11.50;97.30;;;;;;5056022;28;20542;-60
2024/03/01 13:07:40;;;;;;;16.43;6.97;;;11.50;97.30;;;;;;5053995;28;20460;-60
2024/03/01 13:10:07;;;;;;;20.77;6.53;;;11.50;97.30;;;;;;5061914;28;20904;-60
2024/03/01 13:12:36;;;;;;;13.60;7.27;;;11.50;97.30;;;;;;5054538;28;20420;-60
2024/03/01 13:15:17;;;;;;;9.67;6.30;;;11.60;97.30;;;;;;5051223;28;20417;-61
2024/03/01 13:17:53;;;;;;;4.67;4.37;;;11.60;97.30;;;;;;5049401;28;20773;-62
2024/03/01 13:20:59;;;;;;;19.23;5.63;;;11.60;97.30;;;;;;5044015;28;20436;-60
2024/03/01 13:24:07;;;;;;;12.63;6.70;;;11.50;97.30;;;;;;5049698;28;21091;-61
2024/03/01 13:26:54;;;;;;;14.30;6.30;;;11.40;97.30;;;;;;5039411;28;20493;-59
2024/03/01 13:29:25;;;;;;;10.20;4.23;;;11.40;97.30;;;;;;5047506;28;20417;-61
2024/03/01 13:32:00;;;;;;;11.83;3.97;;;11.20;97.30;;;;;;5047186;28;20433;-61
2024/03/01 13:34:29;;;;;;;12.90;6.93;;;11.20;97.30;;;;;;5045648;28;20798;-58
2024/03/01 13:37:07;;;;;;;9.93;5.17;;;11.20;97.30;;;;;;5054183;28;20457;-61
2024/03/01 13:39:48;;;;;;;6.17;4.83;;;11.20;97.30;;;;;;5047608;28;20430;-59
2024/03/01 13:42:20;;;;;;;8.27;5.97;;;11.20;97.30;;;;;;5046911;28;21095;-58
2024/03/01 13:44:46;;;;;;;10.20;5.40;;;11.10;97.30;;;;;;5064031;28;20465;-58
2024/03/01 13:47:26;;;;;;;12.60;6.63;;;11.10;97.30;;;;;;5063978;28;20455;-61
2024/03/01 13:49:57;;;;;;;9.13;6.33;;;11.00;97.30;;;;;;5063921;28;20405;-61
2024/03/01 13:52:23;;;;;;;5.03;4.43;;;11.00;97.30;;;;;;5060875;28;20441;-58
2024/03/01 13:54:50;;;;;;;19.37;7.27;;;11.10;97.30;;;;;;5058336;28;20429;-61
2024/03/01 13:57:21;;;;;;;5.10;4.80;;;11.00;97.30;;;;;;5052617;28;20192;-61
2024/03/01 13:59:47;;;;;;;11.63;6.47;;;11.00;97.30;;;;;;5052055;28;20418;-61
2024/03/01 14:02:13;;;;;;;15.70;8.40;;;10.90;97.30;;;;;;5053928;28;20566;-61
2024/03/01 14:04:41;;;;;;;18.90;6.07;;;10.90;97.30;;;;;;5064594;28;20286;-61
2024/03/01 14:07:13;;;;;;;9.90;5.50;;;10.90;97.30;;;;;;5060218;28;20414;-61
2024/03/01 14:09:40;;;;;;;14.23;5.50;;;10.80;97.30;;;;;;5060185;28;20531;-61
2024/03/01 14:12:06;;;;;;;6.30;3.87;;;10.80;97.30;;;;;;5059806;28;20529;-61
2024/03/01 14:14:32;;;;;;;9.30;4.60;;;10.90;97.30;;;;;;5051674;28;20941;-61
2024/03/01 14:16:59;;;;;;;16.43;5.40;;;10.80;97.30;;;;;;5067998;28;20421;-58
2024/03/01 14:19:25;;;;;;;8.33;5.50;;;10.80;97.30;;;;;;5055437;28;20413;-58
2024/03/01 14:21:50;;;;;;;14.03;6.00;;;10.80;97.30;;;;;;5062763;28;20561;-61
2024/03/01 14:24:17;;;;;;;7.30;6.93;;;10.80;97.30;;;;;;5067687;28;20225;-61
2024/03/01 14:26:42;;;;;;;9.70;6.43;;;10.80;97.30;;;;;;5053732;28;20644;-58
2024/03/01 14:29:08;;;;;;;10.17;6.70;;;10.70;97.30;;;;;;5053660;28;20479;-61
2024/03/01 14:31:37;;;;;;;10.83;3.87;;;10.70;97.30;;;;;;5057761;28;20573;-61
2024/03/01 14:34:03;;;;;;;15.70;7.03;;;10.60;97.30;;;;;;5058594;28;20255;-61
2024/03/01 14:36:32;;;;;;;7.73;4.30;;;10.60;97.30;;;;;;5060829;28;20424;-60
2024/03/01 14:38:59;;;;;;;7.47;3.53;;;10.60;97.30;;;;;;5056040;28;20576;-61
2024/03/01 14:41:36;;;;;;;11.43;7.27;;;10.70;97.30;;;;;;5049450;28;20430;-60
2024/03/01 14:44:01;;;;;;;6.77;5.37;;;10.70;97.30;;;;;;5050336;28;20874;-60
2024/03/01 14:46:47;;;;;;;13.90;4.37;;;10.70;97.30;;;;;;5063939;28;20418;-60
2024/03/01 14:49:14;;;;;;;34.57;5.77;;;10.80;97.30;;;;;;5057246;28;20183;-60
2024/03/01 14:51:41;;;;;;;22.00;6.70;;;10.80;97.30;;;;;;5062055;28;20441;-60
2024/03/01 14:54:21;;;;;;;19.93;8.00;;;10.80;97.30;;;;;;5064221;28;20441;-60
2024/03/01 14:56:50;;;;;;;3.23;2.97;;;10.70;97.30;;;;;;5056982;28;20785;-61
2024/03/01 14:59:17;;;;;;;7.67;5.03;;;10.70;97.30;;;;;;5060106;28;20913;-60
2024/03/01 15:01:44;;;;;;;11.63;3.97;;;10.70;97.30;;;;;;5054524;28;20681;-60
2024/03/01 15:04:11;;;;;;;8.80;4.93;;;10.70;97.30;;;;;;5057655;28;20863;-60
2024/03/01 15:06:38;;;;;;;20.27;3.53;;;10.60;97.30;;;;;;5060864;28;20713;-61
2024/03/01 15:09:06;;;;;;;10.47;4.30;;;10.60;97.30;;;;;;5059580;28;20845;-60
2024/03/01 15:11:32;;;;;;;16.13;5.60;;;10.60;97.30;;;;;;5053812;28;20438;-60
2024/03/01 15:14:08;;;;;;;11.27;4.80;;;10.60;97.30;;;;;;5058412;28;20514;-60
2024/03/01 15:16:34;;;;;;;31.97;7.30;;;10.60;97.30;;;;;;5057413;28;20449;-60
2024/03/01 15:19:00;;;;;;;4.50;3.33;;;10.60;97.30;;;;;;5058504;28;20418;-60
2024/03/01 15:21:25;;;;;;;10.10;4.97;;;10.60;97.30;;;;;;5062707;28;20816;-60
2024/03/01 15:23:51;;;;;;;9.83;6.23;;;10.60;97.30;;;;;;5062083;28;20362;-60
2024/03/01 15:26:17;;;;;;;4.07;3.10;;;10.60;97.30;;;;;;5058675;28;20226;-60
2024/03/01 15:28:43;;;;;;;10.17;5.93;;;10.60;97.30;;;;;;5063853;28;20178;-60
2024/03/01 15:31:10;;;;;;;12.77;6.80;;;10.60;97.30;;;;;;5056602;28;20199;-60
2024/03/01 15:33:36;;;;;;;14.33;7.27;;;10.50;97.30;;;;;;5060754;28;20446;-60
2024/03/01 15:36:02;;;;;;;90.57;45.13;;;10.50;97.30;;;;;;5060241;28;20957;-61
2024/03/01 15:38:28;;;;;;;92.17;44.47;;;10.40;97.30;;;;;;5054656;28;20172;-60
2024/03/01 15:40:55;;;;;;;23.97;12.47;;;10.40;97.30;;;;;;5049036;28;20444;-61
2024/03/01 15:43:21;;;;;;;217.20;92.20;;;10.40;97.30;;;;;;5065212;28;20198;-61
2024/03/01 15:45:46;;;;;;;33.43;11.63;;;10.40;97.30;;;;;;5055950;28;20464;-61
2024/03/01 15:48:12;;;;;;;14.63;4.30;;;10.30;97.30;;;;;;5051283;28;20226;-61
2024/03/01 15:50:37;;;;;;;25.83;5.67;;;10.30;97.30;;;;;;5050617;28;20269;-61
2024/03/01 15:53:03;;;;;;;13.90;5.27;;;10.30;97.30;;;;;;5048572;28;20555;-61
2024/03/01 15:55:29;;;;;;;13.80;8.67;;;10.30;97.30;;;;;;5048372;28;20186;-61
2024/03/01 15:57:55;;;;;;;15.70;5.27;;;10.30;97.30;;;;;;5061393;28;20675;-61
2024/03/01 16:00:21;;;;;;;19.93;7.13;;;10.30;97.30;;;;;;5057718;28;20444;-61
2024/03/01 16:02:47;;;;;;;18.83;6.17;;;10.30;97.30;;;;;;5059405;28;20176;-61
2024/03/01 16:05:15;;;;;;;24.53;7.73;;;10.30;97.30;;;;;;5064487;28;20418;-61
2024/03/01 16:07:45;;;;;;;11.03;5.23;;;10.20;97.30;;;;;;5054878;28;20432;-61
2024/03/01 16:10:19;;;;;;;7.33;6.27;;;10.20;97.30;;;;;;5049649;28;20407;-61
2024/03/01 16:13:06;;;;;;;9.30;5.43;;;10.20;97.30;;;;;;5052240;28;20422;-61
2024/03/01 16:15:31;;;;;;;10.10;7.83;;;10.10;97.30;;;;;;5058232;28;20414;-61
2024/03/01 16:17:58;;;;;;;24.60;6.13;;;10.10;97.30;;;;;;5067400;28;20405;-61
2024/03/01 16:20:28;;;;;;;10.13;5.23;;;9.90;97.30;;;;;;5050704;28;20206;-61
2024/03/01 16:22:55;;;;;;;6.13;3.77;;;9.80;97.30;;;;;;5049493;28;20462;-60
2024/03/01 16:25:21;;;;;;;7.27;4.20;;;9.70;97.30;;;;;;5051875;28;20503;-61
2024/03/01 16:27:47;;;;;;;17.60;7.47;;;9.70;97.30;;;;;;5048194;28;20479;-61
2024/03/01 16:30:24;;;;;;;8.63;5.37;;;9.60;97.30;;;;;;5054350;28;21019;-61
2024/03/01 16:32:50;;;;;;;7.73;4.27;;;9.60;97.30;;;;;;5062541;28;20179;-61
2024/03/01 16:35:48;;;;;;;10.13;6.20;;;9.60;97.30;;;;;;5057741;28;20409;-61
2024/03/01 16:38:13;;;;;;;5.17;4.87;;;9.40;97.30;;;;;;5046297;28;20544;-61
2024/03/01 16:40:39;;;;;;;5.10;4.80;;;9.30;97.30;;;;;;5050103;28;20430;-61
2024/03/01 16:43:30;;;;;;;13.30;5.33;;;9.10;97.30;;;;;;5055890;28;20765;-61
2024/03/01 16:45:55;;;;;;;7.97;4.03;;;9.00;97.30;;;;;;5055507;28;20175;-61
2024/03/01 16:48:35;;;;;;;14.90;6.17;;;9.00;97.30;;;;;;5055827;28;20426;-62
2024/03/01 16:51:03;;;;;;;13.63;7.03;;;8.90;97.30;;;;;;5049213;28;20197;-62
2024/03/01 16:53:29;;;;;;;13.63;5.87;;;8.80;97.30;;;;;;5051657;28;20918;-62
2024/03/01 16:56:02;;;;;;;14.60;8.47;;;8.80;97.30;;;;;;5046857;28;20679;-61
2024/03/01 16:58:28;;;;;;;28.07;8.17;;;8.80;97.30;;;;;;5053691;28;20206;-61
2024/03/01 17:00:56;;;;;;;18.17;8.47;;;8.80;97.30;;;;;;5048356;28;20744;-61
2024/03/01 17:03:34;;;;;;;20.10;9.63;;;8.80;97.30;;;;;;5052730;28;20199;-61
2024/03/01 17:06:00;;;;;;;7.50;6.27;;;8.70;97.30;;;;;;5045077;28;20854;-61
2024/03/01 17:08:36;;;;;;;10.07;7.73;;;8.70;97.30;;;;;;5055379;28;20430;-61
2024/03/01 17:11:03;;;;;;;11.63;7.60;;;8.80;97.30;;;;;;5049468;28;20668;-61
2024/03/01 17:13:30;;;;;;;26.70;9.07;;;8.80;97.30;;;;;;5048895;28;20460;-62
2024/03/01 17:15:56;;;;;;;5.33;5.03;;;8.80;97.30;;;;;;5044321;28;20944;-60
2024/03/01 17:18:23;;;;;;;18.37;5.50;;;8.70;97.30;;;;;;5044053;28;20718;-60
2024/03/01 17:20:49;;;;;;;6.83;5.20;;;8.60;97.30;;;;;;5047414;28;20442;-61
2024/03/01 17:23:15;;;;;;;5.83;4.43;;;8.50;97.30;;;;;;5052723;28;20474;-61
2024/03/01 17:25:41;;;;;;;12.10;6.93;;;8.50;97.30;;;;;;5058308;28;20423;-61
2024/03/01 17:28:07;;;;;;;21.77;6.57;;;8.40;97.30;;;;;;5050425;28;20449;-60
2024/03/01 17:30:33;;;;;;;8.10;5.07;;;8.40;97.30;;;;;;5052670;28;20437;-61
2024/03/01 17:32:59;;;;;;;9.13;5.50;;;8.40;97.30;;;;;;5058745;28;21087;-61
2024/03/01 17:35:24;;;;;;;10.50;4.57;;;8.30;97.30;;;;;;5052567;28;20191;-61
2024/03/01 17:37:50;;;;;;;10.23;5.40;;;8.20;97.30;;;;;;5055793;28;20425;-61
2024/03/01 17:40:16;;;;;;;14.93;5.60;;;8.20;97.30;;;;;;5052795;28;20258;-60
2024/03/01 17:42:42;;;;;;;7.70;5.07;;;8.10;97.30;;;;;;5049544;28;20425;-61
2024/03/01 17:45:09;;;;;;;13.00;4.07;;;8.00;97.30;;;;;;5048049;28;20573;-61
2024/03/01 17:47:34;;;;;;;4.37;4.10;;;7.90;97.30;;;;;;5050794;28;20233;-61
2024/03/01 17:50:00;;;;;;;9.97;6.83;;;7.90;97.30;;;;;;5052492;28;20453;-60
2024/03/01 17:52:26;;;;;;;11.13;5.27;;;7.90;97.30;;;;;;5049828;28;20199;-60
2024/03/01 17:54:51;;;;;;;5.47;5.17;;;7.80;97.30;;;;;;5059335;28;20842;-61
2024/03/01 17:57:17;;;;;;;8.43;5.87;;;7.70;97.30;;;;;;5055443;28;20184;-61
2024/03/01 17:59:43;;;;;;;12.13;3.33;;;7.70;97.30;;;;;;5064178;28;20198;-61
2024/03/01 18:02:08;;;;;;;16.43;6.80;;;7.70;97.30;;;;;;5048025;28;20800;-60
2024/03/01 18:04:34;;;;;;;27.63;8.87;;;7.60;97.30;;;;;;5054968;28;20334;-60
2024/03/01 18:07:00;;;;;;;17.10;7.17;;;7.60;97.30;;;;;;5059601;28;20194;-60
2024/03/01 18:09:30;;;;;;;17.10;9.87;;;7.60;97.30;;;;;;5050972;28;20168;-60
2024/03/01 18:11:57;;;;;;;18.53;9.80;;;7.60;97.30;;;;;;5041965;28;20437;-60
2024/03/01 18:14:22;;;;;;;13.83;6.40;;;7.50;97.30;;;;;;5046384;28;20829;-61
2024/03/01 18:16:48;;;;;;;9.00;7.80;;;7.50;97.30;;;;;;5055354;28;20429;-61
2024/03/01 18:19:14;;;;;;;13.53;9.00;;;7.50;97.30;;;;;;5056213;28;20191;-61
2024/03/01 18:21:40;;;;;;;21.23;8.13;;;7.40;97.30;;;;;;5054183;28;20211;-60
2024/03/01 18:24:06;;;;;;;17.53;10.10;;;7.40;97.30;;;;;;5067486;28;20567;-61